Time;durP1;ratioP1;P1;durP2;ratioP2;P2;SDS_P1;SDS_P2;PMS_P1;PMS_P2;Temp;Humidity;BMP_temperature;BMP_pressure;BME280_temperature;BME280_humidity;BME280_pressure;Samples;Min_cycle;Max_cycle;Signal;HPM_P1;HPM_P2
2022/12/09 00:00:23;;;;;;;;;;;;;;;2.77;100.00;99919.09;5590432;31;34679;-71
2022/12/09 00:03:30;;;;;;;;;;;;;;;2.74;100.00;99921.97;5590326;31;34268;-71
2022/12/09 00:06:37;;;;;;;;;;;;;;;2.74;100.00;99914.12;5590316;31;34770;-71
2022/12/09 00:09:43;;;;;;;;;;;;;;;2.77;100.00;99919.91;5576926;31;34896;-71
2022/12/09 00:12:52;;;;;;;;;;;;;;;2.79;100.00;99909.31;5590162;31;34884;-71
2022/12/09 00:16:09;;;;;;;;;;;;;;;2.70;100.00;99905.69;5576120;31;35330;-71
2022/12/09 00:19:14;;;;;;;;;;;;;;;2.56;100.00;99892.94;5590269;31;35086;-71
2022/12/09 00:22:21;;;;;;;;;;;;;;;2.44;100.00;99886.91;5590100;31;34294;-72
2022/12/09 00:25:28;;;;;;;;;;;;;;;2.36;100.00;99893.75;5590027;31;34832;-70
2022/12/09 00:28:37;;;;;;;;;;;;;;;2.45;100.00;99906.09;5589797;31;34326;-71
2022/12/09 00:31:43;;;;;;;;;;;;;;;2.38;100.00;99921.44;5563595;31;35477;-72
2022/12/09 00:34:54;;;;;;;;;;;;;;;2.46;100.00;99923.47;5590068;31;34886;-71
2022/12/09 00:38:04;;;;;;;;;;;;;;;2.56;100.00;99930.41;5590072;31;34281;-71
2022/12/09 00:41:14;;;;;;;;;;;;;;;2.70;100.00;99937.12;5590033;31;34352;-72
2022/12/09 00:44:26;;;;;;;;;;;;;;;2.61;100.00;99930.03;5577332;31;34166;-71
2022/12/09 00:47:34;;;;;;;;;;;;;;;2.59;100.00;99935.41;5590052;31;34260;-71
2022/12/09 00:50:43;;;;;;;;;;;;;;;2.46;100.00;99937.38;5589996;31;34852;-71
2022/12/09 00:53:54;;;;;;;;;;;;;;;2.54;100.00;99919.22;5576876;31;34926;-71
2022/12/09 00:57:01;;;;;;;;;;;;;;;2.63;100.00;99926.31;5589718;31;34503;-71
2022/12/09 01:00:08;;;;;;;;;;;;;;;2.56;100.00;99916.50;5589856;31;34196;-71
2022/12/09 01:03:15;;;;;;;;;;;;;;;2.55;100.00;99914.84;5589869;31;35125;-71
2022/12/09 01:06:24;;;;;;;;;;;;;;;2.58;100.00;99917.19;5589774;31;34196;-71
2022/12/09 01:09:34;;;;;;;;;;;;;;;2.54;100.00;99921.84;5575533;31;32678;-72
2022/12/09 01:12:43;;;;;;;;;;;;;;;2.62;100.00;99924.66;5589650;31;34150;-71
2022/12/09 01:15:50;;;;;;;;;;;;;;;2.56;100.00;99925.19;5576122;31;34965;-71
2022/12/09 01:18:58;;;;;;;;;;;;;;;2.54;100.00;99926.25;5589595;31;34365;-71
2022/12/09 01:22:06;;;;;;;;;;;;;;;2.51;100.00;99922.13;5589678;31;34832;-71
2022/12/09 01:25:12;;;;;;;;;;;;;;;2.43;100.00;99927.13;5589552;31;34327;-71
2022/12/09 01:28:18;;;;;;;;;;;;;;;2.43;100.00;99924.53;5575832;31;34530;-71
2022/12/09 01:31:27;;;;;;;;;;;;;;;2.38;100.00;99926.69;5589430;31;34321;-71
2022/12/09 01:34:36;;;;;;;;;;;;;;;2.40;100.00;99916.94;5589404;31;34334;-71
2022/12/09 01:37:51;;;;;;;;;;;;;;;2.46;100.00;99924.28;5589323;31;34249;-71
2022/12/09 01:40:59;;;;;;;;;;;;;;;2.48;100.00;99916.28;5588439;31;34630;-71
2022/12/09 01:44:09;;;;;;;;;;;;;;;2.44;100.00;99920.13;5575314;31;33160;-71
2022/12/09 01:47:21;;;;;;;;;;;;;;;2.44;100.00;99907.88;5589226;31;34386;-71
2022/12/09 01:50:30;;;;;;;;;;;;;;;2.33;100.00;99894.81;5588988;31;34221;-71
2022/12/09 01:53:37;;;;;;;;;;;;;;;2.17;100.00;99897.06;5575778;31;34200;-71
2022/12/09 01:56:47;;;;;;;;;;;;;;;2.17;100.00;99899.69;5589175;31;34873;-71
2022/12/09 01:59:53;;;;;;;;;;;;;;;2.20;100.00;99902.03;5588851;31;34534;-71
2022/12/09 02:03:04;;;;;;;;;;;;;;;2.25;100.00;99899.03;5588964;31;34260;-71
2022/12/09 02:06:13;;;;;;;;;;;;;;;2.34;100.00;99901.72;5588886;31;34821;-71
2022/12/09 02:09:20;;;;;;;;;;;;;;;2.35;100.00;99903.41;5575546;31;34731;-72
2022/12/09 02:12:46;;;;;;;;;;;;;;;2.35;100.00;99906.00;5588414;31;34871;-71
2022/12/09 02:15:57;;;;;;;;;;;;;;;2.41;100.00;99908.13;5575412;31;34345;-71
2022/12/09 02:19:09;;;;;;;;;;;;;;;2.50;100.00;99906.53;5588626;31;34896;-71
2022/12/09 02:22:20;;;;;;;;;;;;;;;2.53;100.00;99904.47;5574754;31;33041;-71
2022/12/09 02:25:30;;;;;;;;;;;;;;;2.56;100.00;99901.63;5588394;31;34994;-71
2022/12/09 02:28:44;;;;;;;;;;;;;;;2.54;100.00;99900.91;5562311;31;34487;-71
2022/12/09 02:32:13;;;;;;;;;;;;;;;2.73;100.00;99894.94;5588260;31;34411;-71
2022/12/09 02:35:30;;;;;;;;;;;;;;;2.62;100.00;99888.00;5588279;31;34879;-71
2022/12/09 02:38:40;;;;;;;;;;;;;;;2.37;100.00;99887.56;5588384;31;34678;-71
2022/12/09 02:41:46;;;;;;;;;;;;;;;2.46;100.00;99879.78;5588114;31;34273;-72
2022/12/09 02:44:56;;;;;;;;;;;;;;;2.56;100.00;99885.06;5588114;31;34816;-71
2022/12/09 02:48:04;;;;;;;;;;;;;;;2.56;100.00;99885.91;5574208;31;33785;-71
2022/12/09 02:51:14;;;;;;;;;;;;;;;2.47;100.00;99886.66;5588323;31;34272;-71
2022/12/09 02:54:23;;;;;;;;;;;;;;;2.43;100.00;99887.88;5576763;31;33178;-71
2022/12/09 02:57:33;;;;;;;;;;;;;;;2.36;100.00;99884.13;5590762;31;34360;-71
2022/12/09 03:00:41;;;;;;;;;;;;;;;2.54;100.00;99877.34;5577628;31;34960;-71
2022/12/09 03:03:49;;;;;;;;;;;;;;;2.51;100.00;99868.91;5590886;31;34378;-71
2022/12/09 03:07:00;;;;;;;;;;;;;;;2.40;100.00;99875.06;5590743;31;34904;-71
2022/12/09 03:10:15;;;;;;;;;;;;;;;2.39;100.00;99878.63;5577497;31;34785;-71
2022/12/09 03:13:30;;;;;;;;;;;;;;;2.34;100.00;99875.56;5551587;32;34103;-71
2022/12/09 03:17:00;;;;;;;;;;;;;;;2.43;100.00;99876.56;5550678;32;33929;-72
2022/12/09 03:20:10;;;;;;;;;;;;;;;2.43;100.00;99869.53;5550905;32;34690;-71
2022/12/09 03:23:21;;;;;;;;;;;;;;;2.31;100.00;99870.59;5538455;32;35718;-71
2022/12/09 03:26:28;;;;;;;;;;;;;;;2.31;100.00;99878.44;5551861;32;34194;-72
2022/12/09 03:29:39;;;;;;;;;;;;;;;2.43;100.00;99881.81;5551978;32;34560;-71
2022/12/09 03:32:46;;;;;;;;;;;;;;;2.40;100.00;99884.69;5563121;32;32853;-71
2022/12/09 03:35:55;;;;;;;;;;;;;;;2.49;100.00;99891.78;5551573;32;35093;-71
2022/12/09 03:39:06;;;;;;;;;;;;;;;2.40;100.00;99890.75;5563537;32;33320;-71
2022/12/09 03:42:19;;;;;;;;;;;;;;;2.41;100.00;99876.72;5551586;32;34305;-71
2022/12/09 03:45:27;;;;;;;;;;;;;;;2.45;100.00;99890.38;5551452;32;34877;-71
2022/12/09 03:48:34;;;;;;;;;;;;;;;2.28;100.00;99890.94;5550664;32;34246;-71
2022/12/09 03:51:51;;;;;;;;;;;;;;;2.46;100.00;99876.34;5551319;32;34738;-71
2022/12/09 03:54:58;;;;;;;;;;;;;;;2.40;100.00;99876.84;5551291;32;34306;-72
2022/12/09 03:58:06;;;;;;;;;;;;;;;2.46;100.00;99876.34;5551311;32;34863;-71
2022/12/09 04:01:15;;;;;;;;;;;;;;;2.23;100.00;99880.03;5551327;32;34931;-71
2022/12/09 04:04:23;;;;;;;;;;;;;;;2.23;100.00;99885.28;5550725;32;34136;-72
2022/12/09 04:07:32;;;;;;;;;;;;;;;2.27;100.00;99884.88;5516907;32;1063708;-71
2022/12/09 04:10:41;;;;;;;;;;;;;;;2.28;100.00;99873.44;5555602;31;34845;-72
2022/12/09 04:13:50;;;;;;;;;;;;;;;2.24;100.00;99869.41;5590229;31;34640;-71
2022/12/09 04:17:00;;;;;;;;;;;;;;;2.21;100.00;99876.72;5576461;31;33396;-71
2022/12/09 04:20:07;;;;;;;;;;;;;;;2.15;100.00;99868.41;5590281;31;34356;-71
2022/12/09 04:23:17;;;;;;;;;;;;;;;2.18;100.00;99860.28;5577152;31;34908;-71
2022/12/09 04:26:23;;;;;;;;;;;;;;;2.34;100.00;99853.78;5590186;31;34890;-72
2022/12/09 04:29:28;;;;;;;;;;;;;;;2.08;100.00;99850.72;5576660;31;34829;-71
2022/12/09 04:32:34;;;;;;;;;;;;;;;1.96;100.00;99855.19;5590110;31;34684;-71
2022/12/09 04:35:43;;;;;;;;;;;;;;;1.96;100.00;99855.19;5576169;31;33671;-71
2022/12/09 04:38:52;;;;;;;;;;;;;;;2.07;100.00;99859.53;5589944;31;35034;-71
2022/12/09 04:41:58;;;;;;;;;;;;;;;2.11;100.00;99859.16;5576156;31;32670;-72
2022/12/09 04:45:04;;;;;;;;;;;;;;;2.13;100.00;99854.59;5590058;31;35586;-72
2022/12/09 04:48:10;;;;;;;;;;;;;;;2.12;100.00;99855.59;5590060;31;34589;-72
2022/12/09 04:51:18;;;;;;;;;;;;;;;2.07;100.00;99847.28;5563520;31;33483;-72
2022/12/09 04:54:26;;;;;;;;;;;;;;;2.08;100.00;99843.69;5576838;31;34030;-72
2022/12/09 04:57:33;;;;;;;;;;;;;;;2.05;100.00;99846.56;5576009;31;32694;-73
2022/12/09 05:00:43;;;;;;;;;;;;;;;2.11;100.00;99850.47;5589708;31;34329;-72
2022/12/09 05:03:53;;;;;;;;;;;;;;;2.19;100.00;99851.50;5589930;31;34627;-73
2022/12/09 05:07:02;;;;;;;;;;;;;;;2.28;100.00;99857.75;5576452;31;34326;-73
2022/12/09 05:10:10;;;;;;;;;;;;;;;2.32;100.00;99859.16;5589603;31;34635;-73
2022/12/09 05:13:17;;;;;;;;;;;;;;;2.32;100.00;99855.72;5589440;31;34356;-72
2022/12/09 05:16:23;;;;;;;;;;;;;;;2.28;100.00;99843.81;5588303;31;34728;-73
2022/12/09 05:19:32;;;;;;;;;;;;;;;2.26;100.00;99845.75;5575447;31;34553;-72
2022/12/09 05:22:40;;;;;;;;;;;;;;;2.34;100.00;99849.37;5589712;31;35047;-72
2022/12/09 05:25:48;;;;;;;;;;;;;;;2.36;100.00;99857.94;5589498;31;34313;-72
2022/12/09 05:28:55;;;;;;;;;;;;;;;2.43;100.00;99861.69;5576219;31;34225;-73
2022/12/09 05:32:01;;;;;;;;;;;;;;;2.50;100.00;99867.25;5576038;31;34925;-73
2022/12/09 05:35:08;;;;;;;;;;;;;;;2.57;100.00;99863.16;5589719;31;34759;-73
2022/12/09 05:38:15;;;;;;;;;;;;;;;2.45;100.00;99858.97;5589156;31;34919;-73
2022/12/09 05:41:21;;;;;;;;;;;;;;;2.37;100.00;99859.59;5575214;31;34400;-72
2022/12/09 05:44:29;;;;;;;;;;;;;;;2.38;100.00;99857.78;5589256;31;34141;-72
2022/12/09 05:47:37;;;;;;;;;;;;;;;2.35;100.00;99852.84;5589088;31;34868;-73
2022/12/09 05:50:43;;;;;;;;;;;;;;;2.41;100.00;99844.47;5575148;31;32823;-72
2022/12/09 05:53:50;;;;;;;;;;;;;;;2.38;100.00;99836.84;5589164;31;34175;-72
2022/12/09 05:56:56;;;;;;;;;;;;;;;2.44;100.00;99831.13;5588885;31;34194;-72
2022/12/09 06:00:06;;;;;;;;;;;;;;;2.38;100.00;99835.06;5589030;31;34163;-72
2022/12/09 06:03:13;;;;;;;;;;;;;;;2.35;100.00;99831.88;5588728;31;34889;-73
2022/12/09 06:06:19;;;;;;;;;;;;;;;2.44;100.00;99828.50;5562121;31;35273;-73
2022/12/09 06:09:24;;;;;;;;;;;;;;;2.53;100.00;99828.53;5588734;31;34214;-73
2022/12/09 06:12:28;;;;;;;;;;;;;;;2.55;100.00;99826.63;5574491;31;35026;-73
2022/12/09 06:15:33;;;;;;;;;;;;;;;2.55;100.00;99823.19;5574996;31;32666;-73
2022/12/09 06:18:37;;;;;;;;;;;;;;;2.62;100.00;99825.16;5574229;31;32703;-73
2022/12/09 06:21:41;;;;;;;;;;;;;;;2.50;100.00;99826.19;5573857;31;34273;-72
2022/12/09 06:24:46;;;;;;;;;;;;;;;2.52;100.00;99823.44;5574749;31;34348;-73
2022/12/09 06:27:55;;;;;;;;;;;;;;;2.63;100.00;99821.56;5589987;31;34686;-73
2022/12/09 06:30:59;;;;;;;;;;;;;;;2.77;100.00;99816.94;5590656;31;34302;-73
2022/12/09 06:34:04;;;;;;;;;;;;;;;2.77;100.00;99827.41;5591159;31;34211;-73
2022/12/09 06:37:08;;;;;;;;;;;;;;;2.69;100.00;99804.50;5576543;31;32754;-73
2022/12/09 06:40:11;;;;;;;;;;;;;;;2.72;100.00;99817.31;5590590;31;34489;-74
2022/12/09 06:43:15;;;;;;;;;;;;;;;2.76;100.00;99815.28;5590685;31;35017;-75
2022/12/09 06:46:22;;;;;;;;;;;;;;;2.71;100.00;99826.13;5590911;31;34313;-75
2022/12/09 06:49:26;;;;;;;;;;;;;;;2.85;100.00;99823.19;5576769;31;32747;-77
2022/12/09 06:52:31;;;;;;;;;;;;;;;2.81;100.00;99818.34;5591044;31;34493;-74
2022/12/09 06:55:35;;;;;;;;;;;;;;;2.74;100.00;99820.66;5590896;31;34237;-76
2022/12/09 06:58:38;;;;;;;;;;;;;;;2.79;100.00;99815.03;5591130;31;34881;-76
2022/12/09 07:01:42;;;;;;;;;;;;;;;2.84;100.00;99818.06;5565053;31;34869;-77
2022/12/09 07:04:54;;;;;;;;;;;;;;;2.84;100.00;99816.28;5595253;31;34373;-76
2022/12/09 07:08:00;;;;;;;;;;;;;;;2.88;100.00;99814.22;5576804;31;33186;-76
2022/12/09 07:11:04;;;;;;;;;;;;;;;2.90;100.00;99818.37;5564410;31;34400;-78
2022/12/09 07:14:09;;;;;;;;;;;;;;;2.82;100.00;99810.34;5577620;31;35097;-77
2022/12/09 07:17:18;;;;;;;;;;;;;;;2.81;100.00;99802.63;5592228;31;34250;-77
2022/12/09 07:20:22;;;;;;;;;;;;;;;2.88;100.00;99801.97;5563962;31;32983;-76
2022/12/09 07:23:26;;;;;;;;;;;;;;;2.84;100.00;99802.34;5592009;31;34194;-77
2022/12/09 07:26:31;;;;;;;;;;;;;;;2.85;100.00;99804.84;5581743;31;34307;-79
2022/12/09 07:29:35;;;;;;;;;;;;;;;2.91;100.00;99803.47;5601150;31;34858;-78
2022/12/09 07:32:38;;;;;;;;;;;;;;;2.97;100.00;99797.69;5586744;31;34505;-78
2022/12/09 07:35:41;;;;;;;;;;;;;;;3.05;100.00;99803.09;5585568;31;34411;-78
2022/12/09 07:38:46;;;;;;;;;;;;;;;3.01;100.00;99802.53;5584818;31;34621;-78
2022/12/09 07:41:52;;;;;;;;;;;;;;;3.07;100.00;99803.81;5585913;31;34255;-80
2022/12/09 07:44:57;;;;;;;;;;;;;;;3.04;100.00;99799.69;5589519;31;35605;-77
2022/12/09 07:48:00;;;;;;;;;;;;;;;3.07;100.00;99803.81;5573279;31;33367;-77
2022/12/09 07:51:03;;;;;;;;;;;;;;;3.05;100.00;99800.47;5570590;31;32928;-78
2022/12/09 07:54:10;;;;;;;;;;;;;;;2.99;100.00;99801.88;5596585;31;34501;-77
2022/12/09 07:57:16;;;;;;;;;;;;;;;2.98;100.00;99794.97;5581149;31;34656;-78
2022/12/09 08:00:20;;;;;;;;;;;;;;;2.98;100.00;99792.34;5593761;31;34306;-78
2022/12/09 08:03:23;;;;;;;;;;;;;;;3.03;100.00;99792.78;5581343;31;34600;-79
2022/12/09 08:06:28;;;;;;;;;;;;;;;3.11;100.00;99793.88;5594086;31;34969;-79
2022/12/09 08:09:32;;;;;;;;;;;;;;;3.08;100.00;99794.97;5593427;31;34353;-78
2022/12/09 08:12:36;;;;;;;;;;;;;;;3.21;100.00;99790.31;5593378;31;34315;-78
2022/12/09 08:15:40;;;;;;;;;;;;;;;3.23;100.00;99784.94;5576953;31;34604;-77
2022/12/09 08:18:43;;;;;;;;;;;;;;;3.10;100.00;99787.78;5590746;31;33903;-78
2022/12/09 08:21:48;;;;;;;;;;;;;;;3.18;100.00;99771.41;5590563;31;34113;-78
2022/12/09 08:24:56;;;;;;;;;;;;;;;3.13;100.00;99774.44;5577105;31;34840;-76
2022/12/09 08:28:00;;;;;;;;;;;;;;;3.20;100.00;99775.53;5566113;31;34446;-78
2022/12/09 08:31:10;;;;;;;;;;;;;;;3.29;100.00;99774.72;5594045;31;35514;-79
2022/12/09 08:34:15;;;;;;;;;;;;;;;3.35;100.00;99775.97;5590846;31;34886;-77
2022/12/09 08:37:20;;;;;;;;;;;;;;;3.59;100.00;99765.09;5591481;31;33779;-77
2022/12/09 08:40:25;;;;;;;;;;;;;;;3.67;100.00;99763.44;5579053;31;34226;-78
2022/12/09 08:43:28;;;;;;;;;;;;;;;3.71;100.00;99758.75;5579467;31;35529;-77
2022/12/09 08:46:34;;;;;;;;;;;;;;;3.50;100.00;99753.62;5577794;31;34612;-78
2022/12/09 08:49:36;;;;;;;;;;;;;;;3.58;100.00;99755.59;5592011;31;34263;-77
2022/12/09 08:52:41;;;;;;;;;;;;;;;3.56;100.00;99755.72;5578272;31;33507;-77
2022/12/09 08:55:44;;;;;;;;;;;;;;;3.62;100.00;99760.41;5590757;31;34669;-78
2022/12/09 08:58:48;;;;;;;;;;;;;;;3.46;100.00;99747.00;5592733;31;34244;-78
2022/12/09 09:01:54;;;;;;;;;;;;;;;3.40;100.00;99739.69;5593721;31;34820;-79
2022/12/09 09:05:00;;;;;;;;;;;;;;;3.49;100.00;99737.06;5578275;31;34418;-77
2022/12/09 09:08:06;;;;;;;;;;;;;;;3.47;100.00;99735.56;5591216;31;34975;-78
2022/12/09 09:11:12;;;;;;;;;;;;;;;3.50;100.00;99723.00;5576829;31;35090;-77
2022/12/09 09:14:16;;;;;;;;;;;;;;;3.54;100.00;99726.16;5590677;31;34811;-77
2022/12/09 09:17:21;;;;;;;;;;;;;;;3.60;100.00;99723.00;5590059;31;35009;-77
2022/12/09 09:20:24;;;;;;;;;;;;;;;3.61;100.00;99718.56;5590930;31;34330;-77
2022/12/09 09:23:28;;;;;;;;;;;;;;;3.60;100.00;99716.91;5589851;31;34323;-76
2022/12/09 09:26:32;;;;;;;;;;;;;;;3.73;100.00;99706.94;5589515;31;34165;-76
2022/12/09 09:29:37;;;;;;;;;;;;;;;3.71;100.00;99708.91;5575324;31;35609;-77
2022/12/09 09:32:41;;;;;;;;;;;;;;;3.77;100.00;99703.09;5575436;31;33407;-77
2022/12/09 09:35:53;;;;;;;;;;;;;;;3.76;100.00;99707.53;5589293;31;34893;-77
2022/12/09 09:38:58;;;;;;;;;;;;;;;3.70;100.00;99708.06;5589228;31;34969;-76
2022/12/09 09:42:04;;;;;;;;;;;;;;;3.68;100.00;99698.72;5589531;31;34681;-75
2022/12/09 09:45:15;;;;;;;;;;;;;;;3.63;100.00;99691.22;5588984;31;34631;-76
2022/12/09 09:48:22;;;;;;;;;;;;;;;3.80;100.00;99693.16;5588941;31;34464;-75
2022/12/09 09:51:27;;;;;;;;;;;;;;;3.84;100.00;99688.44;5589117;31;34616;-75
2022/12/09 09:54:31;;;;;;;;;;;;;;;3.89;100.00;99691.47;5589049;31;34167;-75
2022/12/09 09:57:39;;;;;;;;;;;;;;;3.76;100.00;99681.28;5588773;31;34856;-75
2022/12/09 10:00:55;;;;;;;;;;;;;;;3.72;100.00;99677.28;5575378;31;34411;-77
2022/12/09 10:04:05;;;;;;;;;;;;;;;3.78;100.00;99676.72;5591303;31;34825;-75
2022/12/09 10:07:09;;;;;;;;;;;;;;;3.76;100.00;99678.66;5591328;31;34278;-75
2022/12/09 10:10:12;;;;;;;;;;;;;;;3.72;100.00;99666.81;5591327;31;34951;-77
2022/12/09 10:13:25;;;;;;;;;;;;;;;3.70;100.00;99654.78;5577753;31;34741;-73
2022/12/09 10:16:49;;;;;;;;;;;;;;;3.68;100.00;99649.66;5591269;31;34243;-74
2022/12/09 10:20:02;;;;;;;;;;;;;;;3.67;100.00;99641.97;5591040;31;34410;-75
2022/12/09 10:23:11;;;;;;;;;;;;;;;3.65;100.00;99633.41;5591463;31;34221;-74
2022/12/09 10:26:22;;;;;;;;;;;;;;;3.76;100.00;99620.94;5591192;31;34282;-75
2022/12/09 10:29:42;;;;;;;;;;;;;;;3.60;100.00;99625.97;5591113;31;34861;-74
2022/12/09 10:32:46;;;;;;;;;;;;;;;3.57;100.00;99605.28;5590884;31;34701;-74
2022/12/09 10:35:50;;;;;;;;;;;;;;;3.50;100.00;99601.53;5590953;31;34306;-75
2022/12/09 10:38:53;;;;;;;;;;;;;;;3.52;100.00;99583.88;5577280;31;34990;-75
2022/12/09 10:45:19;;;;;;;;;;;;;;;3.55;100.00;99565.22;5591001;31;34263;-76
2022/12/09 10:48:33;;;;;;;;;;;;;;;3.54;100.00;99552.25;5591734;31;34382;-79
2022/12/09 10:51:46;;;;;;;;;;;;;;;3.50;100.00;99543.84;5578106;31;34583;-78
2022/12/09 10:54:49;;;;;;;;;;;;;;;3.63;100.00;99533.88;5591122;31;34356;-76
2022/12/09 10:58:07;;;;;;;;;;;;;;;3.56;100.00;99532.81;5577171;31;34425;-75
2022/12/09 11:01:12;;;;;;;;;;;;;;;3.64;100.00;99516.34;5591136;31;34371;-79
2022/12/09 11:04:20;;;;;;;;;;;;;;;3.46;100.00;99519.72;5590881;31;34899;-77
2022/12/09 11:07:27;;;;;;;;;;;;;;;3.47;100.00;99504.81;5590813;31;34350;-76
2022/12/09 11:10:31;;;;;;;;;;;;;;;3.46;100.00;99513.66;5590794;31;34643;-75
2022/12/09 11:13:41;;;;;;;;;;;;;;;3.51;100.00;99514.06;5577588;31;34602;-79
2022/12/09 11:16:44;;;;;;;;;;;;;;;3.48;100.00;99496.81;5591078;31;34539;-77
2022/12/09 11:19:50;;;;;;;;;;;;;;;3.45;100.00;99491.03;5591204;31;34861;-75
2022/12/09 11:23:17;;;;;;;;;;;;;;;3.58;100.00;99486.28;5577130;31;35143;-77
2022/12/09 11:26:21;;;;;;;;;;;;;;;3.55;100.00;99485.72;5586937;31;34703;-77
2022/12/09 11:29:25;;;;;;;;;;;;;;;3.59;100.00;99484.47;5594508;31;34328;-76
2022/12/09 11:32:28;;;;;;;;;;;;;;;3.60;100.00;99484.34;5580314;31;34836;-77
2022/12/09 11:35:36;;;;;;;;;;;;;;;3.53;100.00;99485.91;5595388;31;34672;-77
2022/12/09 11:38:42;;;;;;;;;;;;;;;3.54;100.00;99492.78;5595132;31;34503;-77
2022/12/09 11:45:21;;;;;;;;;;;;;;;3.53;100.00;99475.41;5579209;31;33398;-77
2022/12/09 11:48:28;;;;;;;;;;;;;;;3.50;100.00;99467.81;5594239;31;34213;-77
2022/12/09 11:51:58;;;;;;;;;;;;;;;3.40;100.00;99461.78;5582905;31;34461;-78
2022/12/09 11:55:22;;;;;;;;;;;;;;;3.44;100.00;99463.16;5583518;31;33003;-77
2022/12/09 11:58:38;;;;;;;;;;;;;;;3.37;100.00;99456.84;5578965;31;35304;-79
2022/12/09 12:01:40;;;;;;;;;;;;;;;3.32;100.00;99448.59;5603022;31;34531;-78
2022/12/09 12:04:57;;;;;;;;;;;;;;;3.37;100.00;99448.97;5601810;31;34646;-80
2022/12/09 12:08:02;;;;;;;;;;;;;;;3.48;100.00;99449.63;5583139;31;33165;-79
2022/12/09 12:11:07;;;;;;;;;;;;;;;3.59;100.00;99442.50;5595481;31;35218;-77
2022/12/09 12:14:22;;;;;;;;;;;;;;;3.45;100.00;99438.59;5581751;31;34949;-78
2022/12/09 12:17:28;;;;;;;;;;;;;;;3.60;100.00;99437.13;5581518;31;34619;-78
2022/12/09 12:20:47;;;;;;;;;;;;;;;3.57;100.00;99434.81;5595602;31;34345;-75
2022/12/09 12:24:09;;;;;;;;;;;;;;;3.65;100.00;99447.19;5592834;31;34367;-78
2022/12/09 12:27:20;;;;;;;;;;;;;;;3.73;100.00;99434.97;5585361;31;34641;-77
2022/12/09 12:30:26;;;;;;;;;;;;;;;3.81;100.00;99436.87;5593346;31;34876;-75
2022/12/09 12:33:38;;;;;;;;;;;;;;;3.62;100.00;99427.34;5577779;31;35179;-77
2022/12/09 12:37:01;;;;;;;;;;;;;;;3.64;100.00;99424.53;5577301;31;32745;-77
2022/12/09 12:40:09;;;;;;;;;;;;;;;3.68;100.00;99410.97;5576403;31;34098;-74
2022/12/09 12:46:56;;;;;;;;;;;;;;;3.59;100.00;99408.41;5590504;31;35046;-76
2022/12/09 12:50:18;;;;;;;;;;;;;;;3.59;100.00;99411.03;5563410;31;34787;-76
2022/12/09 12:53:36;;;;;;;;;;;;;;;3.40;100.00;99391.84;5564452;31;34450;-77
2022/12/09 12:56:48;;;;;;;;;;;;;;;3.41;100.00;99403.16;5590647;31;34351;-75
2022/12/09 12:59:54;;;;;;;;;;;;;;;3.53;100.00;99402.00;5589834;31;34952;-76
2022/12/09 13:03:00;;;;;;;;;;;;;;;3.42;100.00;99400.38;5590836;31;34365;-76
2022/12/09 13:06:12;;;;;;;;;;;;;;;3.36;100.00;99389.66;5592668;31;35108;-75
2022/12/09 13:09:26;;;;;;;;;;;;;;;3.42;100.00;99386.44;5590006;31;34270;-76
2022/12/09 13:15:57;;;;;;;;;;;;;;;3.38;100.00;99385.09;5589420;31;34772;-76
2022/12/09 13:19:14;;;;;;;;;;;;;;;3.35;100.00;99383.56;5563062;31;32747;-76
2022/12/09 13:22:23;;;;;;;;;;;;;;;3.36;100.00;99377.38;5590289;31;34346;-77
2022/12/09 13:25:26;;;;;;;;;;;;;;;3.46;100.00;99369.44;5590296;31;34916;-77
2022/12/09 13:28:32;;;;;;;;;;;;;;;3.59;100.00;99372.53;5589764;31;34197;-73
2022/12/09 13:31:38;;;;;;;;;;;;;;;3.43;100.00;99367.97;5589321;31;34533;-76
2022/12/09 13:34:45;;;;;;;;;;;;;;;3.40;100.00;99378.72;5590611;31;34337;-77
2022/12/09 13:37:51;;;;;;;;;;;;;;;3.34;100.00;99376.69;5589973;31;34350;-76
2022/12/09 13:40:53;;;;;;;;;;;;;;;3.35;100.00;99372.25;5589878;31;34517;-76
2022/12/09 13:44:08;;;;;;;;;;;;;;;3.38;100.00;99366.75;5590086;31;34443;-76
2022/12/09 13:47:23;;;;;;;;;;;;;;;3.38;100.00;99364.97;5590346;31;34258;-76
2022/12/09 13:50:37;;;;;;;;;;;;;;;3.41;100.00;99367.28;5588917;31;34977;-75
2022/12/09 13:53:47;;;;;;;;;;;;;;;3.32;100.00;99356.84;5589062;31;34649;-76
2022/12/09 13:57:05;;;;;;;;;;;;;;;3.26;100.00;99357.41;5575151;31;34888;-75
2022/12/09 14:00:15;;;;;;;;;;;;;;;3.23;100.00;99352.47;5588822;31;34353;-76
2022/12/09 14:03:36;;;;;;;;;;;;;;;3.20;100.00;99345.72;5574955;31;35109;-76
2022/12/09 14:06:43;;;;;;;;;;;;;;;3.19;100.00;99354.56;5588535;31;34335;-77
2022/12/09 14:09:49;;;;;;;;;;;;;;;3.20;100.00;99343.09;5574987;31;34712;-77
2022/12/09 14:12:55;;;;;;;;;;;;;;;3.28;100.00;99340.59;5574841;31;34720;-75
2022/12/09 14:16:17;;;;;;;;;;;;;;;3.26;100.00;99345.13;5575351;31;34379;-73
2022/12/09 14:19:24;;;;;;;;;;;;;;;3.25;100.00;99342.66;5561483;31;33013;-75
2022/12/09 14:22:30;;;;;;;;;;;;;;;3.23;100.00;99344.63;5588349;31;34270;-74
2022/12/09 14:25:33;;;;;;;;;;;;;;;3.19;100.00;99328.38;5561713;31;36925;-74
2022/12/09 14:28:41;;;;;;;;;;;;;;;3.21;100.00;99322.97;5588310;31;34812;-78
2022/12/09 14:31:47;;;;;;;;;;;;;;;3.27;100.00;99320.59;5587999;31;34697;-75
2022/12/09 14:35:05;;;;;;;;;;;;;;;3.23;100.00;99332.34;5587997;31;35028;-75
2022/12/09 14:38:16;;;;;;;;;;;;;;;3.23;100.00;99327.09;5587955;31;33836;-77
2022/12/09 14:41:43;;;;;;;;;;;;;;;3.22;100.00;99322.81;5588128;31;34710;-75
2022/12/09 14:44:46;;;;;;;;;;;;;;;3.30;100.00;99312.41;5588124;31;34267;-77
2022/12/09 14:47:52;;;;;;;;;;;;;;;3.23;100.00;99297.44;5588730;31;34324;-75
2022/12/09 14:51:15;;;;;;;;;;;;;;;3.26;100.00;99287.47;5590867;31;34897;-76
2022/12/09 14:54:20;;;;;;;;;;;;;;;3.28;100.00;99277.69;5591016;31;34374;-78
2022/12/09 14:57:32;;;;;;;;;;;;;;;3.28;100.00;99288.16;5590950;31;34308;-77
2022/12/09 15:00:39;;;;;;;;;;;;;;;3.26;100.00;99278.78;5590751;31;34645;-78
2022/12/09 15:03:49;;;;;;;;;;;;;;;3.27;100.00;99270.78;5591611;31;34854;-76
2022/12/09 15:07:09;;;;;;;;;;;;;;;3.41;100.00;99264.19;5576574;31;35346;-76
2022/12/09 15:10:17;;;;;;;;;;;;;;;3.39;100.00;99258.28;5591119;31;34226;-77
2022/12/09 15:13:22;;;;;;;;;;;;;;;3.40;100.00;99252.88;5590181;31;34886;-76
2022/12/09 15:16:25;;;;;;;;;;;;;;;3.34;100.00;99255.31;5590448;31;34946;-77
2022/12/09 15:19:30;;;;;;;;;;;;;;;3.38;100.00;99260.09;5589979;31;34142;-75
2022/12/09 15:22:55;;;;;;;;;;;;;;;3.42;100.00;99268.47;5576443;31;35942;-77
2022/12/09 15:26:05;;;;;;;;;;;;;;;3.47;100.00;99250.50;5565429;31;33517;-76
2022/12/09 15:29:21;;;;;;;;;;;;;;;3.56;100.00;99246.16;5591709;31;34393;-76
2022/12/09 15:32:26;;;;;;;;;;;;;;;3.67;100.00;99244.13;5591122;31;34239;-77
2022/12/09 15:35:32;;;;;;;;;;;;;;;3.60;100.00;99242.25;5576363;31;35712;-76
2022/12/09 15:38:42;;;;;;;;;;;;;;;3.47;100.00;99234.78;5576323;31;35311;-76
2022/12/09 15:42:08;;;;;;;;;;;;;;;3.43;100.00;99225.56;5576642;31;34611;-76
2022/12/09 15:45:25;;;;;;;;;;;;;;;3.47;100.00;99227.72;5565674;31;35117;-75
2022/12/09 15:48:33;;;;;;;;;;;;;;;3.47;100.00;99224.28;5590300;31;34239;-77
2022/12/09 15:51:41;;;;;;;;;;;;;;;3.52;100.00;99210.72;5590360;31;34835;-75
2022/12/09 15:54:48;;;;;;;;;;;;;;;3.66;100.00;99203.13;5590441;31;34468;-76
2022/12/09 15:57:55;;;;;;;;;;;;;;;3.63;100.00;99202.63;5576485;31;32735;-76
2022/12/09 16:01:00;;;;;;;;;;;;;;;3.51;100.00;99191.53;5575658;31;34651;-75
2022/12/09 16:04:05;;;;;;;;;;;;;;;3.53;100.00;99178.28;5590187;31;34169;-77
2022/12/09 16:07:13;;;;;;;;;;;;;;;3.62;100.00;99180.81;5590562;31;34198;-76
2022/12/09 16:10:25;;;;;;;;;;;;;;;3.60;100.00;99182.75;5590243;31;34842;-75
2022/12/09 16:13:29;;;;;;;;;;;;;;;3.61;100.00;99183.56;5590140;31;34910;-77
2022/12/09 16:16:44;;;;;;;;;;;;;;;3.78;100.00;99180.91;5590172;31;34389;-75
2022/12/09 16:19:50;;;;;;;;;;;;;;;3.69;100.00;99171.34;5590197;31;33808;-76
2022/12/09 16:22:56;;;;;;;;;;;;;;;3.60;100.00;99167.03;5590105;31;34959;-76
2022/12/09 16:26:01;;;;;;;;;;;;;;;3.63;100.00;99164.06;5576768;31;35162;-76
2022/12/09 16:29:31;;;;;;;;;;;;;;;3.60;100.00;99159.16;5577070;31;34333;-75
2022/12/09 16:32:44;;;;;;;;;;;;;;;3.77;100.00;99147.81;5576683;31;34244;-77
2022/12/09 16:35:58;;;;;;;;;;;;;;;3.65;100.00;99154.28;5589983;31;34222;-75